createdAt,value
2019-02-28T00:00:42.583Z,0.49
2019-02-28T00:01:47.327Z,0.45
2019-02-28T00:02:40.934Z,0.51
2019-02-28T00:03:40.686Z,0.33
2019-02-28T00:04:41.143Z,0.34
2019-02-28T00:05:41.242Z,0.48
2019-02-28T00:06:45.294Z,0.66
2019-02-28T00:07:40.743Z,0.51
2019-02-28T00:08:41.295Z,0.67
2019-02-28T00:09:40.952Z,0.64
2019-02-28T00:10:42.566Z,0.47
2019-02-28T00:11:40.840Z,0.39
2019-02-28T00:12:41.176Z,0.54
2019-02-28T00:13:40.872Z,0.55
2019-02-28T00:14:40.824Z,0.33
2019-02-28T00:15:41.107Z,0.48
2019-02-28T00:16:40.823Z,0.41
2019-02-28T00:17:43.903Z,0.38
2019-02-28T00:18:40.928Z,0.38
2019-02-28T00:19:41.545Z,0.61
2019-02-28T00:20:40.716Z,0.41
2019-02-28T00:21:41.504Z,0.52
2019-02-28T00:22:40.686Z,0.65
2019-02-28T00:23:41.146Z,0.62
2019-02-28T00:24:40.970Z,0.61
2019-02-28T00:25:42.542Z,0.69
2019-02-28T00:26:48.061Z,0.51
2019-02-28T00:27:41.083Z,0.67
2019-02-28T00:28:41.183Z,0.73
2019-02-28T00:29:40.785Z,0.7
2019-02-28T00:30:41.774Z,0.61
2019-02-28T00:31:40.786Z,0.61
2019-02-28T00:32:41.144Z,0.59
2019-02-28T00:33:40.738Z,0.57
2019-02-28T00:34:40.672Z,0.54
2019-02-28T00:35:41.270Z,0.58
2019-02-28T00:36:42.521Z,0.67
2019-02-28T00:37:40.635Z,0.43
2019-02-28T00:38:40.697Z,0.49
2019-02-28T00:39:40.730Z,0.82
2019-02-28T00:40:41.294Z,0.87
2019-02-28T00:41:44.849Z,0.86
2019-02-28T00:42:40.973Z,0.69
2019-02-28T00:43:40.659Z,0.74
2019-02-28T00:44:40.661Z,0.71
2019-02-28T00:45:41.083Z,0.7
2019-02-28T00:46:45.538Z,0.65
2019-02-28T00:47:40.832Z,0.79
2019-02-28T00:48:40.655Z,0.79
2019-02-28T00:49:40.713Z,0.72
2019-02-28T00:50:40.664Z,0.8
2019-02-28T00:51:40.765Z,0.71
2019-02-28T00:52:42.507Z,0.79
2019-02-28T00:53:40.814Z,0.84
2019-02-28T00:54:44.660Z,0.77
2019-02-28T00:55:40.690Z,0.88
2019-02-28T00:56:41.228Z,0.96
2019-02-28T00:57:42.202Z,0.99
2019-02-28T00:58:41.180Z,0.96
2019-02-28T00:59:40.685Z,1.09
2019-02-28T01:00:41.100Z,1.24
2019-02-28T01:01:47.106Z,1.4
2019-02-28T01:02:41.100Z,1.28
2019-02-28T01:03:40.748Z,1.32
2019-02-28T01:04:40.808Z,1.26
2019-02-28T01:05:40.753Z,1.19
2019-02-28T01:06:42.708Z,1.37
2019-02-28T01:07:40.663Z,1.39
2019-02-28T01:08:40.598Z,1.4
2019-02-28T01:09:40.624Z,1.22
2019-02-28T01:10:40.895Z,1.41
2019-02-28T01:11:40.438Z,1.35
2019-02-28T01:12:40.673Z,1.38
2019-02-28T01:13:40.861Z,1.62
2019-02-28T01:14:40.971Z,1.55
2019-02-28T01:15:45.935Z,1.58
2019-02-28T01:16:41.665Z,1.65
2019-02-28T01:17:40.703Z,1.6
2019-02-28T01:18:42.449Z,1.57
2019-02-28T01:19:42.503Z,1.66
2019-02-28T01:20:40.695Z,1.67
2019-02-28T01:21:41.387Z,1.54
2019-02-28T01:22:41.143Z,1.53
2019-02-28T01:23:40.603Z,1.67
2019-02-28T01:24:41.413Z,1.73
2019-02-28T01:25:41.106Z,1.71
2019-02-28T01:26:47.547Z,1.66
2019-02-28T01:27:40.855Z,1.74
2019-02-28T01:28:41.553Z,1.76
2019-02-28T01:29:42.486Z,1.69
2019-02-28T01:30:41.366Z,1.59
2019-02-28T01:31:43.583Z,1.69
2019-02-28T01:32:40.597Z,1.66
2019-02-28T01:33:40.575Z,1.71
2019-02-28T01:34:40.634Z,1.78
2019-02-28T01:35:41.702Z,1.69
2019-02-28T01:36:40.708Z,1.75
2019-02-28T01:37:41.018Z,1.7
2019-02-28T01:38:42.424Z,1.7
2019-02-28T01:39:40.743Z,1.66
2019-02-28T01:40:41.518Z,1.72
2019-02-28T01:41:46.021Z,1.74
2019-02-28T01:42:40.744Z,1.75
2019-02-28T01:43:40.809Z,1.77
2019-02-28T01:44:40.705Z,1.8
2019-02-28T01:45:44.520Z,1.73
2019-02-28T01:46:40.871Z,1.76
2019-02-28T01:47:40.615Z,1.63
2019-02-28T01:48:42.416Z,1.73
2019-02-28T01:49:40.938Z,1.7
2019-02-28T01:50:40.920Z,1.72
2019-02-28T01:51:41.186Z,1.79
2019-02-28T01:52:46.327Z,1.78
2019-02-28T01:53:42.276Z,1.64
2019-02-28T01:54:40.588Z,1.7
2019-02-28T01:55:40.942Z,1.66
2019-02-28T01:56:40.681Z,1.77
2019-02-28T01:57:44.568Z,1.72
2019-02-28T01:58:40.633Z,1.58
2019-02-28T01:59:41.121Z,1.56
2019-02-28T02:00:40.683Z,1.52
2019-02-28T02:01:41.841Z,1.58
2019-02-28T02:02:40.687Z,1.62
2019-02-28T02:03:41.973Z,1.57
2019-02-28T02:04:46.791Z,1.56
2019-02-28T02:05:40.793Z,1.52
2019-02-28T02:06:41.204Z,1.68
2019-02-28T02:07:40.647Z,1.53
2019-02-28T02:08:40.814Z,1.57
2019-02-28T02:09:47.131Z,1.52
2019-02-28T02:10:40.514Z,1.63
2019-02-28T02:11:40.650Z,1.52
2019-02-28T02:12:40.705Z,1.6
2019-02-28T02:13:41.166Z,1.71
2019-02-28T02:14:46.084Z,1.78
2019-02-28T02:15:40.624Z,1.85
2019-02-28T02:16:40.527Z,1.85
2019-02-28T02:17:42.595Z,1.75
2019-02-28T02:18:44.508Z,1.82
2019-02-28T02:19:40.540Z,1.83
2019-02-28T02:20:40.798Z,1.75
2019-02-28T02:21:40.699Z,1.72
2019-02-28T02:22:45.843Z,1.66
2019-02-28T02:23:40.518Z,1.77
2019-02-28T02:24:40.498Z,1.86
2019-02-28T02:25:40.929Z,1.67
2019-02-28T02:26:46.057Z,1.82
2019-02-28T02:27:41.517Z,1.74
2019-02-28T02:28:40.575Z,1.83
2019-02-28T02:29:40.589Z,1.73
2019-02-28T02:30:40.766Z,1.73
2019-02-28T02:31:43.990Z,1.71
2019-02-28T02:32:40.773Z,1.73
2019-02-28T02:33:40.729Z,1.81
2019-02-28T02:34:40.825Z,1.93
2019-02-28T02:35:43.779Z,1.85
2019-02-28T02:36:41.114Z,1.88
2019-02-28T02:37:40.609Z,1.88
2019-02-28T02:38:42.033Z,1.77
2019-02-28T02:39:42.381Z,1.7
2019-02-28T02:40:40.565Z,1.58
2019-02-28T02:41:40.835Z,1.75
2019-02-28T02:42:50.280Z,1.59
2019-02-28T02:43:41.093Z,1.58
2019-02-28T02:44:40.601Z,1.79
2019-02-28T02:45:44.100Z,1.78
2019-02-28T02:46:41.183Z,1.77
2019-02-28T02:47:40.583Z,1.82
2019-02-28T02:48:43.578Z,1.72
2019-02-28T02:49:41.171Z,1.79
2019-02-28T02:50:42.360Z,1.94
2019-02-28T02:51:50.874Z,1.96
2019-02-28T02:52:40.497Z,1.86
2019-02-28T02:53:43.623Z,2.06
2019-02-28T02:54:42.336Z,1.95
2019-02-28T02:55:41.132Z,1.93
2019-02-28T02:56:42.406Z,1.91
2019-02-28T02:57:40.734Z,1.83
2019-02-28T02:58:40.740Z,1.76
2019-02-28T02:59:40.609Z,1.76
2019-02-28T03:00:40.899Z,1.85
2019-02-28T03:01:40.509Z,1.89
2019-02-28T03:02:40.646Z,1.84
2019-02-28T03:03:44.832Z,1.76
2019-02-28T03:04:41.828Z,1.75
2019-02-28T03:05:40.606Z,1.64
2019-02-28T03:06:40.466Z,1.62
2019-02-28T03:07:40.804Z,1.73
2019-02-28T03:08:42.346Z,1.85
2019-02-28T03:09:44.982Z,1.77
2019-02-28T03:10:40.541Z,1.79
2019-02-28T03:11:40.638Z,1.86
2019-02-28T03:12:41.488Z,1.76
2019-02-28T03:13:44.474Z,1.8
2019-02-28T03:14:40.773Z,1.82
2019-02-28T03:15:40.662Z,1.61
2019-02-28T03:16:40.859Z,1.75
2019-02-28T03:17:49.446Z,1.86
2019-02-28T03:18:41.514Z,1.7
2019-02-28T03:19:41.212Z,1.67
2019-02-28T03:20:42.733Z,1.63
2019-02-28T03:21:42.290Z,1.79
2019-02-28T03:22:40.429Z,1.71
2019-02-28T03:23:40.891Z,1.75
2019-02-28T03:24:40.729Z,1.82
2019-02-28T03:25:40.661Z,1.8
2019-02-28T03:26:43.640Z,1.58
2019-02-28T03:27:41.430Z,1.69
2019-02-28T03:28:40.590Z,1.62
2019-02-28T03:29:45.098Z,1.7
2019-02-28T03:30:40.585Z,1.65
2019-02-28T03:31:40.473Z,1.72
2019-02-28T03:32:43.518Z,1.65
2019-02-28T03:33:40.878Z,1.49
2019-02-28T03:34:41.418Z,1.44
2019-02-28T03:35:44.575Z,1.55
2019-02-28T03:36:40.795Z,1.47
2019-02-28T03:37:40.495Z,1.35
2019-02-28T03:38:50.337Z,1.48
2019-02-28T03:39:40.735Z,1.53
2019-02-28T03:40:41.540Z,1.43
2019-02-28T03:41:40.444Z,1.56
2019-02-28T03:42:40.560Z,1.37
2019-02-28T03:43:44.315Z,1.41
2019-02-28T03:44:41.344Z,1.44
2019-02-28T03:45:40.522Z,1.3
2019-02-28T03:46:48.050Z,1.44
2019-02-28T03:47:40.476Z,1.3
2019-02-28T03:48:42.271Z,1.41
2019-02-28T03:49:48.864Z,1.4
2019-02-28T03:50:40.557Z,1.33
2019-02-28T03:51:40.513Z,1.34
2019-02-28T03:52:45.430Z,1.36
2019-02-28T03:53:40.542Z,1.3
2019-02-28T03:54:41.441Z,1.17
2019-02-28T03:55:41.844Z,1.31
2019-02-28T03:56:40.960Z,1.27
2019-02-28T03:57:42.316Z,1.24
2019-02-28T03:58:43.437Z,1.29
2019-02-28T03:59:40.837Z,1.25
2019-02-28T04:00:40.823Z,1.19
2019-02-28T04:01:46.681Z,1.19
2019-02-28T04:02:40.470Z,0.99
2019-02-28T04:03:40.995Z,1.09
2019-02-28T04:04:50.687Z,1.03
2019-02-28T04:05:40.690Z,1.12
2019-02-28T04:06:41.253Z,1.15
2019-02-28T04:07:40.481Z,1.1
2019-02-28T04:08:40.393Z,1.12
2019-02-28T04:09:45.629Z,1.13
2019-02-28T04:10:40.424Z,1.04
2019-02-28T04:11:41.074Z,1
2019-02-28T04:12:47.372Z,1.06
2019-02-28T04:13:40.455Z,0.98
2019-02-28T04:14:40.658Z,0.87
2019-02-28T04:16:10.209Z,0.77
2019-02-28T04:16:40.400Z,0.67
2019-02-28T04:17:40.512Z,0.67
2019-02-28T04:18:46.984Z,0.72
2019-02-28T04:19:41.110Z,0.79
2019-02-28T04:20:40.992Z,0.71
2019-02-28T04:21:48.044Z,0.9
2019-02-28T04:22:41.135Z,0.88
2019-02-28T04:23:40.390Z,0.9
2019-02-28T04:24:40.623Z,0.95
2019-02-28T04:25:40.658Z,0.82
2019-02-28T04:26:40.551Z,0.79
2019-02-28T04:27:42.305Z,0.69
2019-02-28T04:28:40.686Z,0.74
2019-02-28T04:29:40.461Z,0.79
2019-02-28T04:30:44.386Z,0.8
2019-02-28T04:31:40.381Z,0.81
2019-02-28T04:32:40.660Z,0.79
2019-02-28T04:33:40.563Z,0.74
2019-02-28T04:34:40.350Z,0.71
2019-02-28T04:35:40.388Z,0.62
2019-02-28T04:36:41.276Z,0.83
2019-02-28T04:37:47.555Z,0.73
2019-02-28T04:38:40.320Z,0.71
2019-02-28T04:39:41.231Z,0.71
2019-02-28T04:40:40.612Z,0.68
2019-02-28T04:41:40.405Z,0.62
2019-02-28T04:42:40.827Z,0.64
2019-02-28T04:43:45.246Z,0.52
2019-02-28T04:44:40.850Z,0.5
2019-02-28T04:45:40.431Z,0.65
2019-02-28T04:46:40.862Z,0.66
2019-02-28T04:47:42.064Z,0.68
2019-02-28T04:48:40.544Z,0.6
2019-02-28T04:49:40.687Z,0.64
2019-02-28T04:50:41.080Z,0.65
2019-02-28T04:51:41.351Z,0.67
2019-02-28T04:52:48.453Z,0.67
2019-02-28T04:53:40.289Z,0.54
2019-02-28T04:54:40.493Z,0.43
2019-02-28T04:55:42.163Z,0.38
2019-02-28T04:56:46.762Z,0.53
2019-02-28T04:57:40.291Z,0.43
2019-02-28T04:58:40.110Z,0.53
2019-02-28T04:59:40.517Z,0.56
2019-02-28T05:00:40.361Z,0.52
2019-02-28T05:01:40.397Z,0.56
2019-02-28T05:02:40.322Z,0.43
2019-02-28T05:03:41.180Z,0.51
2019-02-28T05:04:41.594Z,0.49
2019-02-28T05:05:40.555Z,0.37
2019-02-28T05:06:41.450Z,0.41
2019-02-28T05:07:40.893Z,0.34
2019-02-28T05:08:40.444Z,0.25
2019-02-28T05:09:40.475Z,0.21
2019-02-28T05:10:41.122Z,0.26
2019-02-28T05:11:40.416Z,0.22
2019-02-28T05:12:41.468Z,0.21
2019-02-28T05:13:41.399Z,0.37
2019-02-28T05:14:40.289Z,0.43
2019-02-28T05:15:41.310Z,0.39
2019-02-28T05:16:43.513Z,0.4
2019-02-28T05:17:40.349Z,0.45
2019-02-28T05:18:40.665Z,0.48
2019-02-28T05:19:40.571Z,0.48
2019-02-28T05:20:46.210Z,0.51
2019-02-28T05:21:40.301Z,0.49
2019-02-28T05:22:40.258Z,0.51
2019-02-28T05:23:42.110Z,0.48
2019-02-28T05:24:43.896Z,0.41
2019-02-28T05:25:41.125Z,0.25
2019-02-28T05:26:40.836Z,0.43
2019-02-28T05:27:41.856Z,0.37
2019-02-28T05:28:41.653Z,0.43
2019-02-28T05:29:45.066Z,0.47
2019-02-28T05:30:41.717Z,0.48
2019-02-28T05:31:40.311Z,0.5
2019-02-28T05:32:40.676Z,0.42
2019-02-28T05:33:43.053Z,0.43
2019-02-28T05:34:40.564Z,0.46
2019-02-28T05:35:40.562Z,0.41
2019-02-28T05:36:40.192Z,0.42
2019-02-28T05:37:40.277Z,0.32
2019-02-28T05:38:40.569Z,0.39
2019-02-28T05:39:40.373Z,0.4
2019-02-28T05:40:41.663Z,0.34
2019-02-28T05:41:40.374Z,0.44
2019-02-28T05:42:40.725Z,0.5
2019-02-28T05:43:40.377Z,0.42
2019-02-28T05:44:41.187Z,0.32
2019-02-28T05:45:40.418Z,0.23
2019-02-28T05:46:40.428Z,0.3
2019-02-28T05:47:47.643Z,0.37
2019-02-28T05:48:40.449Z,0.57
2019-02-28T05:49:42.185Z,0.41
2019-02-28T05:50:41.285Z,0.51
2019-02-28T05:51:40.336Z,0.41
2019-02-28T05:52:41.090Z,0.5
2019-02-28T05:53:42.865Z,0.52
2019-02-28T05:54:40.662Z,0.5
2019-02-28T05:55:40.275Z,0.41
2019-02-28T05:56:41.096Z,0.59
2019-02-28T05:57:45.138Z,0.56
2019-02-28T05:58:40.382Z,0.42
2019-02-28T05:59:40.632Z,0.59
2019-02-28T06:00:40.317Z,0.53
2019-02-28T06:01:47.891Z,0.55
2019-02-28T06:02:40.254Z,0.61
2019-02-28T06:03:40.544Z,0.43
2019-02-28T06:04:40.444Z,0.46
2019-02-28T06:05:40.178Z,0.52
2019-02-28T06:06:40.217Z,0.44
2019-02-28T06:07:40.476Z,0.42
2019-02-28T06:08:40.582Z,0.38
2019-02-28T06:09:40.350Z,0.47
2019-02-28T06:10:40.382Z,0.5
2019-02-28T06:11:40.824Z,0.5
2019-02-28T06:12:45.250Z,0.44
2019-02-28T06:13:40.284Z,0.47
2019-02-28T06:14:41.051Z,0.39
2019-02-28T06:15:40.287Z,0.41
2019-02-28T06:16:40.153Z,0.25
2019-02-28T06:17:40.339Z,0.24
2019-02-28T06:18:40.272Z,0.21
2019-02-28T06:19:44.468Z,0.36
2019-02-28T06:20:40.171Z,0.4
2019-02-28T06:21:40.154Z,0.32
2019-02-28T06:22:40.321Z,0.39
2019-02-28T06:23:41.835Z,0.38
2019-02-28T06:24:40.175Z,0.45
2019-02-28T06:25:40.178Z,0.34
2019-02-28T06:26:40.804Z,0.44
2019-02-28T06:27:50.839Z,0.38
2019-02-28T06:28:40.275Z,0.46
2019-02-28T06:29:40.645Z,0.44
2019-02-28T06:30:42.912Z,0.3
2019-02-28T06:31:40.191Z,0.39
2019-02-28T06:32:40.654Z,0.45
2019-02-28T06:33:40.440Z,0.39
2019-02-28T06:34:43.236Z,0.47
2019-02-28T06:35:40.255Z,0.56
2019-02-28T06:36:42.001Z,0.63
2019-02-28T06:37:40.533Z,0.66
2019-02-28T06:38:40.238Z,0.69
2019-02-28T06:39:40.373Z,0.67
2019-02-28T06:40:40.249Z,0.85
2019-02-28T06:41:41.047Z,0.82
2019-02-28T06:42:40.252Z,0.87
2019-02-28T06:43:40.280Z,0.93
2019-02-28T06:44:40.182Z,0.9
2019-02-28T06:45:40.115Z,0.86
2019-02-28T06:46:40.994Z,0.9
2019-02-28T06:47:40.324Z,0.81
2019-02-28T06:48:40.212Z,0.97
2019-02-28T06:49:42.242Z,0.89
2019-02-28T06:50:40.328Z,0.98
2019-02-28T06:51:41.974Z,1.04
2019-02-28T06:52:40.454Z,1.11
2019-02-28T06:53:40.113Z,1.04
2019-02-28T06:54:41.327Z,1.1
2019-02-28T06:55:40.246Z,1.17
2019-02-28T06:56:40.787Z,1.19
2019-02-28T06:57:40.396Z,1.11
2019-02-28T06:58:40.151Z,1.09
2019-02-28T06:59:39.927Z,1.14
2019-02-28T07:00:40.426Z,1.12
2019-02-28T07:01:40.134Z,1.28
2019-02-28T07:02:40.103Z,1.3
2019-02-28T07:03:42.741Z,1.18
2019-02-28T07:04:41.035Z,1.26
2019-02-28T07:05:40.233Z,1.13
2019-02-28T07:06:40.102Z,1.24
2019-02-28T07:07:40.266Z,1.26
2019-02-28T07:08:40.097Z,1.3
2019-02-28T07:09:40.155Z,1.21
2019-02-28T07:10:41.717Z,1.29
2019-02-28T07:11:40.581Z,1.27
2019-02-28T07:12:40.287Z,1.35
2019-02-28T07:13:41.340Z,1.36
2019-02-28T07:14:40.127Z,1.27
2019-02-28T07:15:40.180Z,1.36
2019-02-28T07:16:40.998Z,1.41
2019-02-28T07:17:47.677Z,1.44
2019-02-28T07:18:40.428Z,1.29
2019-02-28T07:19:40.971Z,1.49
2019-02-28T07:20:40.547Z,1.34
2019-02-28T07:21:44.590Z,1.53
2019-02-28T07:22:41.970Z,1.36
2019-02-28T07:23:40.086Z,1.61
2019-02-28T07:24:41.961Z,1.76
2019-02-28T07:25:40.477Z,1.85
2019-02-28T07:26:40.599Z,1.85
2019-02-28T07:27:40.085Z,1.81
2019-02-28T07:28:40.315Z,1.81
2019-02-28T07:29:43.714Z,1.81
2019-02-28T07:30:40.104Z,1.77
2019-02-28T07:31:40.218Z,1.87
2019-02-28T07:32:40.534Z,1.88
2019-02-28T07:33:45.413Z,1.92
2019-02-28T07:34:40.158Z,1.81
2019-02-28T07:35:40.277Z,1.84
2019-02-28T07:36:46.047Z,1.64
2019-02-28T07:37:40.220Z,1.76
2019-02-28T07:38:40.229Z,1.79
2019-02-28T07:39:41.309Z,1.76
2019-02-28T07:40:40.415Z,1.86
2019-02-28T07:41:41.613Z,1.85
2019-02-28T07:42:40.234Z,1.84
2019-02-28T07:43:40.294Z,1.94
2019-02-28T07:44:40.422Z,1.87
2019-02-28T07:45:40.182Z,1.98
2019-02-28T07:46:43.520Z,1.88
2019-02-28T07:47:41.892Z,2.04
2019-02-28T07:48:40.179Z,2.21
2019-02-28T07:49:40.244Z,2.18
2019-02-28T07:50:40.087Z,2.27
2019-02-28T07:51:41.894Z,2.38
2019-02-28T07:52:40.099Z,2.3
2019-02-28T07:53:42.289Z,2.19
2019-02-28T07:54:40.366Z,2.31
2019-02-28T07:55:40.220Z,2.36
2019-02-28T07:56:44.503Z,2.23
2019-02-28T07:57:40.892Z,2.36
2019-02-28T07:58:40.297Z,2.18
2019-02-28T07:59:42.964Z,2.35
2019-02-28T08:00:40.505Z,2.33
2019-02-28T08:01:41.204Z,2.17
2019-02-28T08:02:40.175Z,2.39
2019-02-28T08:03:45.078Z,2.32
2019-02-28T08:04:40.731Z,2.24
2019-02-28T08:05:40.306Z,2.3
2019-02-28T08:06:40.811Z,2.52
2019-02-28T08:07:40.226Z,2.38
2019-02-28T08:08:40.131Z,2.25
2019-02-28T08:09:41.712Z,2.34
2019-02-28T08:10:40.084Z,2.53
2019-02-28T08:11:40.131Z,2.67
2019-02-28T08:12:40.151Z,2.62
2019-02-28T08:13:40.293Z,2.53
2019-02-28T08:14:48.068Z,2.62
2019-02-28T08:15:40.825Z,2.64
2019-02-28T08:16:40.140Z,2.61
2019-02-28T08:17:44.833Z,2.83
2019-02-28T08:18:40.349Z,2.83
2019-02-28T08:19:39.981Z,2.75
2019-02-28T08:20:40.117Z,2.76
2019-02-28T08:21:50.619Z,2.73
2019-02-28T08:22:40.096Z,2.73
2019-02-28T08:23:40.282Z,2.71
2019-02-28T08:24:40.070Z,2.79
2019-02-28T08:25:43.675Z,2.94
2019-02-28T08:26:43.914Z,3.1
2019-02-28T08:27:40.060Z,3
2019-02-28T08:28:40.080Z,2.99
2019-02-28T08:29:46.130Z,3.08
2019-02-28T08:30:40.050Z,3.1
2019-02-28T08:31:40.439Z,3.15
2019-02-28T08:32:47.407Z,3.16
2019-02-28T08:33:40.005Z,3.34
2019-02-28T08:34:40.193Z,3.11
2019-02-28T08:35:39.998Z,3.21
2019-02-28T08:36:47.557Z,3.31
2019-02-28T08:37:40.272Z,3.44
2019-02-28T08:38:40.162Z,3.48
2019-02-28T08:39:42.333Z,3.43
2019-02-28T08:40:41.201Z,3.31
2019-02-28T08:41:39.800Z,3.28
2019-02-28T08:42:39.989Z,3.39
2019-02-28T08:43:39.791Z,3.29
2019-02-28T08:44:39.777Z,3.35
2019-02-28T08:45:40.010Z,3.55
2019-02-28T08:46:39.787Z,3.57
2019-02-28T08:47:39.787Z,3.62
2019-02-28T08:48:39.783Z,3.63
2019-02-28T08:49:45.690Z,3.72
2019-02-28T08:50:39.803Z,3.75
2019-02-28T08:51:39.774Z,3.77
2019-02-28T08:52:42.433Z,3.83
2019-02-28T08:53:39.807Z,3.88
2019-02-28T08:54:39.764Z,3.9
2019-02-28T08:55:44.601Z,3.83
2019-02-28T08:56:39.755Z,3.97
2019-02-28T08:57:39.768Z,3.92
2019-02-28T08:58:39.776Z,3.97
2019-02-28T08:59:39.797Z,3.92
2019-02-28T09:00:39.870Z,4.08
2019-02-28T09:01:44.429Z,4.06
2019-02-28T09:02:39.829Z,4.19
2019-02-28T09:03:40.775Z,4.07
2019-02-28T09:04:51.107Z,4.26
2019-02-28T09:05:39.744Z,4.02
2019-02-28T09:06:41.904Z,4.15
2019-02-28T09:07:39.778Z,4.09
2019-02-28T09:08:39.734Z,4.22
2019-02-28T09:09:39.744Z,4.2
2019-02-28T09:10:39.781Z,4.25
2019-02-28T09:11:39.799Z,4.24
2019-02-28T09:12:39.750Z,4.32
2019-02-28T09:13:43.805Z,4.34
2019-02-28T09:14:39.756Z,4.53
2019-02-28T09:15:39.729Z,4.39
2019-02-28T09:16:40.455Z,4.56
2019-02-28T09:17:39.755Z,4.51
2019-02-28T09:18:39.756Z,4.39
2019-02-28T09:19:39.726Z,4.58
2019-02-28T09:20:45.384Z,4.51
2019-02-28T09:21:41.436Z,4.49
2019-02-28T09:22:39.903Z,4.72
2019-02-28T09:23:39.948Z,4.67
2019-02-28T09:24:39.904Z,4.8
2019-02-28T09:25:39.987Z,4.63
2019-02-28T09:26:39.882Z,4.75
2019-02-28T09:27:39.928Z,4.79
2019-02-28T09:28:39.872Z,4.84
2019-02-28T09:29:39.860Z,4.79
2019-02-28T09:30:39.876Z,4.75
2019-02-28T09:31:39.973Z,4.88
2019-02-28T09:32:39.874Z,4.8
2019-02-28T09:33:39.851Z,4.76
2019-02-28T09:34:41.465Z,4.74
2019-02-28T09:35:46.672Z,4.84
2019-02-28T09:36:39.879Z,4.81
2019-02-28T09:37:39.887Z,4.89
2019-02-28T09:38:46.120Z,4.92
2019-02-28T09:39:40.182Z,4.84
2019-02-28T09:40:41.513Z,4.94
2019-02-28T09:41:41.449Z,4.92
2019-02-28T09:42:39.866Z,4.9
2019-02-28T09:43:39.867Z,5.03
2019-02-28T09:44:39.988Z,5.01
2019-02-28T09:45:56.457Z,5.08
2019-02-28T09:46:39.879Z,5
2019-02-28T09:47:39.844Z,5.02
2019-02-28T09:48:54.593Z,4.98
2019-02-28T09:49:39.936Z,5.09
2019-02-28T09:50:39.925Z,5.11
2019-02-28T09:51:39.884Z,5.01
2019-02-28T09:52:42.824Z,5.01
2019-02-28T09:53:52.045Z,4.99
2019-02-28T09:54:39.870Z,5.05
2019-02-28T09:55:40.065Z,5.01
2019-02-28T09:56:45.493Z,5.16
2019-02-28T09:57:39.828Z,5.15
2019-02-28T09:58:39.814Z,5.19
2019-02-28T09:59:40.350Z,5.19
2019-02-28T10:00:39.904Z,5.25
2019-02-28T10:01:39.833Z,5.25
2019-02-28T10:02:45.315Z,5.19
2019-02-28T10:03:39.849Z,5.23
2019-02-28T10:04:39.821Z,5.24
2019-02-28T10:05:43.531Z,5.37
2019-02-28T10:06:39.947Z,5.38
2019-02-28T10:07:39.849Z,5.27
2019-02-28T10:08:39.852Z,5.38
2019-02-28T10:09:49.349Z,5.37
2019-02-28T10:10:39.850Z,5.36
2019-02-28T10:11:40.773Z,5.38
2019-02-28T10:12:43.357Z,5.41
2019-02-28T10:13:39.810Z,5.46
2019-02-28T10:14:39.973Z,5.47
2019-02-28T10:15:42.597Z,5.56
2019-02-28T10:16:53.501Z,5.5
2019-02-28T10:17:39.877Z,5.56
2019-02-28T10:18:41.042Z,5.56
2019-02-28T10:19:53.057Z,5.48
2019-02-28T10:20:39.832Z,5.48
2019-02-28T10:21:39.840Z,5.63
2019-02-28T10:22:39.854Z,5.67
2019-02-28T10:23:39.838Z,5.67
2019-02-28T10:24:40.403Z,5.6
2019-02-28T10:25:43.898Z,5.64
2019-02-28T10:26:39.835Z,5.64
2019-02-28T10:27:39.992Z,5.64
2019-02-28T10:28:39.817Z,5.69
2019-02-28T10:29:42.876Z,5.7
2019-02-28T10:30:39.805Z,5.68
2019-02-28T10:31:39.793Z,5.69
2019-02-28T10:33:39.795Z,5.77
2019-02-28T10:34:39.817Z,5.77
2019-02-28T10:35:39.805Z,5.78
2019-02-28T10:36:39.803Z,5.86
2019-02-28T10:38:39.706Z,5.95
2019-02-28T10:39:43.947Z,6.05
2019-02-28T10:40:40.139Z,6.02
2019-02-28T10:41:39.782Z,5.98
2019-02-28T10:42:41.573Z,5.99
2019-02-28T10:43:39.829Z,6.03
2019-02-28T10:44:39.780Z,6.1
2019-02-28T10:45:42.987Z,6.04
2019-02-28T10:46:39.613Z,6.08
2019-02-28T10:47:39.765Z,6
2019-02-28T10:48:51.253Z,6.02
2019-02-28T10:49:39.875Z,5.97
2019-02-28T10:50:39.782Z,6.02
2019-02-28T10:51:39.787Z,6.04
2019-02-28T10:52:39.853Z,6.03
2019-02-28T10:53:40.400Z,6.07
2019-02-28T10:54:39.779Z,6.07
2019-02-28T10:55:39.740Z,6.01
2019-02-28T10:56:39.922Z,6.1
2019-02-28T10:57:41.771Z,6.17
2019-02-28T10:58:39.782Z,6.12
2019-02-28T10:59:39.896Z,6.28
2019-02-28T11:00:39.797Z,6.16
2019-02-28T11:01:42.819Z,6.18
2019-02-28T11:02:39.935Z,6.23
2019-02-28T11:03:39.747Z,6.22
2019-02-28T11:04:44.229Z,6.1
2019-02-28T11:05:39.937Z,6.14
2019-02-28T11:06:39.744Z,6.18
2019-02-28T11:07:39.770Z,6.21
2019-02-28T11:08:40.339Z,6.2
2019-02-28T11:09:39.952Z,6.23
2019-02-28T11:10:39.752Z,6.3
2019-02-28T11:11:46.321Z,6.17
2019-02-28T11:12:39.744Z,6.25
2019-02-28T11:13:39.764Z,6.26
2019-02-28T11:14:40.025Z,6.3
2019-02-28T11:15:39.797Z,6.33
2019-02-28T11:16:39.723Z,6.31
2019-02-28T11:17:39.718Z,6.37
2019-02-28T11:18:42.994Z,6.41
2019-02-28T11:19:39.720Z,6.46
2019-02-28T11:20:39.732Z,6.51
2019-02-28T11:21:39.942Z,6.56
2019-02-28T11:22:41.134Z,6.56
2019-02-28T11:23:39.731Z,6.54
2019-02-28T11:24:39.722Z,6.54
2019-02-28T11:25:39.742Z,6.55
2019-02-28T11:26:45.802Z,6.51
2019-02-28T11:27:40.064Z,6.58
2019-02-28T11:28:39.756Z,6.59
2019-02-28T11:29:39.733Z,6.48
2019-02-28T11:30:45.776Z,6.46
2019-02-28T11:31:39.725Z,6.45
2019-02-28T11:32:39.713Z,6.44
2019-02-28T11:33:40.659Z,6.46
2019-02-28T11:34:39.704Z,6.49
2019-02-28T11:35:39.710Z,6.57
2019-02-28T11:36:39.729Z,6.54
2019-02-28T11:37:46.282Z,6.61
2019-02-28T11:38:39.749Z,6.62
2019-02-28T11:39:39.706Z,6.63
2019-02-28T11:40:44.692Z,6.61
2019-02-28T11:41:44.517Z,6.74
2019-02-28T11:42:39.726Z,6.68
2019-02-28T11:43:40.268Z,6.69
2019-02-28T11:44:39.685Z,6.67
2019-02-28T11:45:39.772Z,6.74
2019-02-28T11:46:39.694Z,6.67
2019-02-28T11:47:43.541Z,6.69
2019-02-28T11:48:39.692Z,6.77
2019-02-28T11:49:39.696Z,6.75
2019-02-28T11:50:45.255Z,6.76
2019-02-28T11:51:39.736Z,6.82
2019-02-28T11:52:39.678Z,6.7
2019-02-28T11:54:39.679Z,6.74
2019-02-28T11:55:39.704Z,6.74
2019-02-28T11:56:39.710Z,6.79
2019-02-28T11:57:42.257Z,6.82
2019-02-28T11:58:39.726Z,6.87
2019-02-28T11:59:39.791Z,6.91
2019-02-28T12:00:39.766Z,6.97
2019-02-28T12:01:48.554Z,6.97
2019-02-28T12:03:01.205Z,7.02
2019-02-28T12:03:39.829Z,7.05
2019-02-28T12:04:41.365Z,6.98
2019-02-28T12:05:39.649Z,6.89
2019-02-28T12:06:39.730Z,6.91
2019-02-28T12:07:39.665Z,7.04
2019-02-28T12:08:45.856Z,7.09
2019-02-28T12:09:39.701Z,7.1
2019-02-28T12:10:39.731Z,7.09
2019-02-28T12:11:39.713Z,7.08
2019-02-28T12:12:45.524Z,7.15
2019-02-28T12:13:39.650Z,7.05
2019-02-28T12:14:39.670Z,7.18
2019-02-28T12:15:39.995Z,7.18
2019-02-28T12:16:45.941Z,7.23
2019-02-28T12:17:39.700Z,7.17
2019-02-28T12:18:41.197Z,7.15
2019-02-28T12:19:39.661Z,7.17
2019-02-28T12:20:39.675Z,6.96
2019-02-28T12:21:49.843Z,7.08
2019-02-28T12:22:39.628Z,7.07
2019-02-28T12:23:39.656Z,7.05
2019-02-28T12:24:39.643Z,7.02
2019-02-28T12:25:43.755Z,7.06
2019-02-28T12:26:39.682Z,7.04
2019-02-28T12:27:39.684Z,7.18
2019-02-28T12:28:39.679Z,7.18
2019-02-28T12:29:39.640Z,7.07
2019-02-28T12:30:40.527Z,7.11
2019-02-28T12:31:39.650Z,7
2019-02-28T12:32:44.304Z,7.14
2019-02-28T12:33:39.662Z,6.96
2019-02-28T12:34:39.654Z,7.02
2019-02-28T12:35:40.885Z,7.05
2019-02-28T12:36:39.661Z,7.1
2019-02-28T12:37:39.613Z,7.13
2019-02-28T12:38:39.660Z,6.98
2019-02-28T12:39:39.619Z,7.09
2019-02-28T12:40:49.670Z,7.03
2019-02-28T12:41:40.344Z,7.06
2019-02-28T12:42:39.640Z,6.99
2019-02-28T12:43:41.722Z,7.05
2019-02-28T12:44:39.670Z,7.07
2019-02-28T12:45:39.662Z,7.11
2019-02-28T12:46:39.615Z,7.08
2019-02-28T12:47:42.461Z,7.1
2019-02-28T12:48:39.611Z,7.17
2019-02-28T12:49:39.661Z,7.19
2019-02-28T12:50:39.669Z,7.1
2019-02-28T12:51:40.404Z,7
2019-02-28T12:52:39.606Z,7.08
2019-02-28T12:53:39.636Z,7.13
2019-02-28T12:54:39.647Z,7.06
2019-02-28T12:55:40.315Z,7.1
2019-02-28T12:56:39.631Z,7.02
2019-02-28T12:57:39.689Z,7.12
2019-02-28T12:58:41.898Z,7.18
2019-02-28T12:59:47.243Z,7.12
2019-02-28T13:00:39.630Z,7.02
2019-02-28T13:01:39.601Z,7.08
2019-02-28T13:02:44.609Z,7.17
2019-02-28T13:03:39.598Z,7.31
2019-02-28T13:04:39.606Z,7.11
2019-02-28T13:05:39.616Z,7.09
2019-02-28T13:06:39.581Z,7.1
2019-02-28T13:07:39.611Z,6.97
2019-02-28T13:08:42.629Z,7.16
2019-02-28T13:09:39.611Z,7.15
2019-02-28T13:10:39.589Z,7.09
2019-02-28T13:11:39.583Z,7.11
2019-02-28T13:12:39.608Z,7.21
2019-02-28T13:13:39.623Z,7.05
2019-02-28T13:14:42.045Z,7.08
2019-02-28T13:15:39.553Z,7.12
2019-02-28T13:16:39.579Z,7.24
2019-02-28T13:17:39.591Z,7.09
2019-02-28T13:18:44.616Z,6.96
2019-02-28T13:19:39.561Z,6.97
2019-02-28T13:20:39.565Z,7.05
2019-02-28T13:21:39.599Z,7.05
2019-02-28T13:22:39.595Z,7.1
2019-02-28T13:23:39.599Z,7.18
2019-02-28T13:24:47.815Z,7.04